This is the latest recevied weather packets stored in our database for station/object BM1CKC-10. If no packets are shown the sender has not sent any weather packets the latest 10 day(s).
| Time | Temp. | Humidity | Pressure | Rain* | Wind** | Luminosity | Snow |
|---|---|---|---|---|---|---|---|
| 1777962599 | 26.67° C | 62% | 1007.7 hPa | - | - | - | - |
| 1777961409 | 27.22° C | 61% | 1008 hPa | - | - | - | - |
| 1777960198 | 27.22° C | 61% | 1008.1 hPa | - | - | - | - |
| 1777958998 | 26.67° C | 61% | 1008.2 hPa | - | - | - | - |
| 1777957798 | 26.67° C | 60% | 1008.7 hPa | - | - | - | - |
| 1777956598 | 27.22° C | 60% | 1008.9 hPa | - | - | - | - |
| 1777955398 | 26.67° C | 60% | 1009 hPa | - | - | - | - |
| 1777954198 | 26.67° C | 60% | 1009 hPa | - | - | - | - |
| 1777952997 | 27.22° C | 60% | 1009.3 hPa | - | - | - | - |
| 1777951798 | 27.22° C | 59% | 1009.3 hPa | - | - | - | - |
| 1777950599 | 27.22° C | 59% | 1009.8 hPa | - | - | - | - |
| 1777949398 | 27.22° C | 59% | 1010 hPa | - | - | - | - |
| 1777948198 | 27.22° C | 59% | 1009.7 hPa | - | - | - | - |
| 1777946999 | 27.22° C | 58% | 1010.1 hPa | - | - | - | - |
| 1777945798 | 27.78° C | 56% | 1010 hPa | - | - | - | - |
| 1777944598 | 27.22° C | 57% | 1009.8 hPa | - | - | - | - |
| 1777943399 | 27.22° C | 56% | 1010 hPa | - | - | - | - |
| 1777942198 | 27.22° C | 55% | 1009.6 hPa | - | - | - | - |
| 1777940998 | 25.56° C | 60% | 1009.7 hPa | - | - | - | - |
| 1777939798 | 25° C | 61% | 1009.4 hPa | - | - | - | - |
| 1777938598 | 25.56° C | 62% | 1009.4 hPa | - | - | - | - |
| 1777937399 | 25.56° C | 61% | 1009.5 hPa | - | - | - | - |
| 1777936199 | 25.56° C | 62% | 1009.4 hPa | - | - | - | - |
| 1777934998 | 25° C | 60% | 1009.2 hPa | - | - | - | - |
| 1777933798 | 25° C | 64% | 1008.9 hPa | - | - | - | - |
* Rain since midnight (hover to see other rain measurements)
** Current wind speed in m/s (hover to see current wind gust speed)